ROYN/OGN METAR and TAF weather

Enter ICAO airport designator
Station Type Date Time Source
ROYN METAR 2018/12/13 08:00 UTC NOAA

ROYN 130800Z AUTO 05016KT 9999 FEW028 SCT033 BKN037 21/16 Q1023


Station Type Date Time Source
ROYN Decoded METAR 2018/12/13 08:00 UTC NOAA

Yonaguni Airport, Japan (ROYN) 24-28N 122-59E 19M
Dec 13, 2018 - 03:00 AM EST / 2018.12.13 0800 UTC
Wind: from the NE (050 degrees) at 18 MPH (16 KT):0
Visibility: greater than 7 mile(s):0
Sky conditions: mostly cloudy
Temperature: 69 F (21 C)
Dew Point: 60 F (16 C)
Relative Humidity: 73%
Pressure (altimeter): 30.21 in. Hg (1023 hPa)
ob: ROYN 130800Z AUTO 05016KT 9999 FEW028 SCT033 BKN037 21/16 Q1023
cycle: 8

Station Type Date Time Source
ROYN TAF UTC NOAA

Error!


Example: see airport list